createdAt,value
2022-12-02T00:01:06.895Z,5.15
2022-12-02T00:03:38.398Z,4.20
2022-12-02T00:06:14.743Z,4.22
2022-12-02T00:08:45.345Z,5.23
2022-12-02T00:11:24.141Z,5.93
2022-12-02T00:13:54.792Z,5.51
2022-12-02T00:16:26.246Z,4.36
2022-12-02T00:18:57.948Z,4.15
2022-12-02T00:21:29.289Z,4.89
2022-12-02T00:23:59.880Z,5.56
2022-12-02T00:26:30.616Z,5.96
2022-12-02T00:29:01.154Z,4.82
2022-12-02T00:31:32.234Z,3.91
2022-12-02T00:34:03.431Z,4.55
2022-12-02T00:36:34.569Z,5.24
2022-12-02T00:39:05.468Z,5.96
2022-12-02T00:41:36.486Z,6.10
2022-12-02T00:44:24.699Z,5.03
2022-12-02T00:46:56.135Z,3.94
2022-12-02T00:49:26.825Z,3.55
2022-12-02T00:51:57.883Z,4.37
2022-12-02T00:54:29.367Z,5.31
2022-12-02T00:57:01.553Z,5.97
2022-12-02T00:59:32.225Z,5.36
2022-12-02T01:02:03.012Z,4.23
2022-12-02T01:04:35.383Z,3.78
2022-12-02T01:07:06.312Z,4.69
2022-12-02T01:09:37.598Z,5.54
2022-12-02T01:12:08.816Z,5.93
2022-12-02T01:14:39.319Z,4.94
2022-12-02T01:17:10.359Z,4.05
2022-12-02T01:19:40.948Z,4.75
2022-12-02T01:22:11.931Z,5.83
2022-12-02T01:24:42.668Z,6.05
2022-12-02T01:27:13.872Z,4.89
2022-12-02T01:29:44.538Z,3.81
2022-12-02T01:32:15.528Z,3.84
2022-12-02T01:34:46.389Z,4.92
2022-12-02T01:37:17.597Z,5.74
2022-12-02T01:39:48.246Z,5.81
2022-12-02T01:42:19.330Z,4.78
2022-12-02T01:44:50.394Z,3.77
2022-12-02T01:47:22.221Z,4.30
2022-12-02T01:49:53.395Z,5.17
2022-12-02T01:52:24.315Z,5.83
2022-12-02T01:54:54.840Z,5.82
2022-12-02T01:57:27.356Z,4.83
2022-12-02T01:59:58.664Z,4.09
2022-12-02T02:02:30.604Z,4.91
2022-12-02T02:05:02.911Z,5.57
2022-12-02T02:07:34.063Z,5.65
2022-12-02T02:10:04.978Z,4.79
2022-12-02T02:12:36.185Z,4.00
2022-12-02T02:15:08.011Z,4.61
2022-12-02T02:17:38.974Z,5.47
2022-12-02T02:20:12.106Z,5.73
2022-12-02T02:22:45.131Z,5.27
2022-12-02T02:25:20.317Z,4.20
2022-12-02T02:27:53.912Z,4.65
2022-12-02T02:30:24.840Z,5.57
2022-12-02T02:32:56.528Z,6.24
2022-12-02T02:35:27.952Z,5.49
2022-12-02T02:38:00.246Z,4.31
2022-12-02T02:40:31.281Z,3.68
2022-12-02T02:43:03.148Z,4.70
2022-12-02T02:45:35.044Z,5.41
2022-12-02T02:48:08.195Z,5.95
2022-12-02T02:50:41.691Z,5.54
2022-12-02T02:53:13.139Z,4.45
2022-12-02T02:55:44.074Z,3.69
2022-12-02T02:58:19.456Z,4.37
2022-12-02T03:00:54.331Z,5.46
2022-12-02T03:03:27.388Z,5.87
2022-12-02T03:05:59.232Z,6.25
2022-12-02T03:08:32.434Z,5.88
2022-12-02T03:11:03.513Z,4.51
2022-12-02T03:13:36.622Z,4.17
2022-12-02T03:16:09.825Z,4.84
2022-12-02T03:18:42.490Z,5.63
2022-12-02T03:21:13.836Z,6.41
2022-12-02T03:23:45.044Z,6.44
2022-12-02T03:26:16.993Z,5.03
2022-12-02T03:28:48.738Z,3.91
2022-12-02T03:31:19.473Z,3.41
2022-12-02T03:33:51.538Z,4.22
2022-12-02T03:36:22.777Z,5.10
2022-12-02T03:38:54.022Z,5.68
2022-12-02T03:41:25.473Z,6.02
2022-12-02T03:43:57.727Z,5.72
2022-12-02T03:46:29.291Z,4.61
2022-12-02T03:49:01.120Z,4.32
2022-12-02T03:51:32.771Z,4.95
2022-12-02T03:54:03.969Z,5.45
2022-12-02T03:56:38.989Z,5.95
2022-12-02T03:59:10.369Z,5.91
2022-12-02T04:01:40.924Z,4.85
2022-12-02T04:04:12.172Z,4.25
2022-12-02T04:06:43.363Z,4.91
2022-12-02T04:09:14.353Z,5.43
2022-12-02T04:11:44.984Z,5.79
2022-12-02T04:14:15.920Z,6.23
2022-12-02T04:16:46.452Z,5.61
2022-12-02T04:19:17.197Z,4.48
2022-12-02T04:21:47.812Z,4.36
2022-12-02T04:24:18.651Z,5.04
2022-12-02T04:26:49.283Z,5.58
2022-12-02T04:29:20.221Z,6.37
2022-12-02T04:31:50.641Z,5.88
2022-12-02T04:34:21.526Z,4.33
2022-12-02T04:36:52.413Z,4.30
2022-12-02T04:39:24.220Z,4.96
2022-12-02T04:41:55.051Z,5.62
2022-12-02T04:44:26.486Z,6.07
2022-12-02T04:46:57.253Z,6.12
2022-12-02T04:49:29.155Z,5.33
2022-12-02T04:52:00.338Z,4.26
2022-12-02T04:54:31.378Z,4.78
2022-12-02T04:57:02.172Z,5.29
2022-12-02T04:59:33.743Z,6.18
2022-12-02T05:02:04.353Z,6.51
2022-12-02T05:04:39.780Z,5.02
2022-12-02T05:07:22.475Z,4.15
2022-12-02T05:09:53.611Z,4.76
2022-12-02T05:12:24.490Z,5.78
2022-12-02T05:14:55.384Z,5.77
2022-12-02T05:17:25.960Z,4.36
2022-12-02T05:19:57.312Z,4.33
2022-12-02T05:22:28.104Z,5.11
2022-12-02T05:24:59.086Z,5.67
2022-12-02T05:27:35.022Z,5.88
2022-12-02T05:30:07.752Z,5.85
2022-12-02T05:32:38.238Z,4.52
2022-12-02T05:35:09.726Z,4.03
2022-12-02T05:37:40.051Z,5.02
2022-12-02T05:40:12.290Z,5.47
2022-12-02T05:42:42.946Z,5.91
2022-12-02T05:45:19.792Z,5.95
2022-12-02T05:47:51.252Z,4.46
2022-12-02T05:50:22.538Z,3.85
2022-12-02T05:52:58.646Z,4.39
2022-12-02T05:55:29.652Z,4.96
2022-12-02T05:58:01.753Z,5.74
2022-12-02T06:00:32.710Z,5.88
2022-12-02T06:03:03.874Z,6.36
2022-12-02T06:05:38.098Z,5.58
2022-12-02T06:08:14.821Z,4.13
2022-12-02T06:10:49.308Z,4.03
2022-12-02T06:13:21.005Z,4.74
2022-12-02T06:15:52.333Z,5.36
2022-12-02T06:18:23.899Z,5.59
2022-12-02T06:20:54.891Z,5.75
2022-12-02T06:23:27.556Z,5.66
2022-12-02T06:25:59.447Z,5.67
2022-12-02T06:28:30.626Z,5.90
2022-12-02T06:31:03.212Z,5.21
2022-12-02T06:33:34.594Z,4.22
2022-12-02T06:36:06.371Z,4.74
2022-12-02T06:38:43.848Z,5.03
2022-12-02T06:41:16.778Z,5.12
2022-12-02T06:44:07.170Z,5.69
2022-12-02T06:46:38.676Z,5.64
2022-12-02T06:49:17.622Z,5.76
2022-12-02T06:51:48.608Z,5.97
2022-12-02T06:54:21.368Z,5.09
2022-12-02T06:56:52.859Z,3.88
2022-12-02T06:59:24.367Z,4.33
2022-12-02T07:01:56.635Z,5.20
2022-12-02T07:04:32.580Z,5.59
2022-12-02T07:07:07.639Z,5.70
2022-12-02T07:09:39.286Z,5.59
2022-12-02T07:12:14.770Z,5.14
2022-12-02T07:14:47.101Z,3.91
2022-12-02T07:17:21.851Z,3.44
2022-12-02T07:20:01.574Z,4.12
2022-12-02T07:22:34.910Z,4.81
2022-12-02T07:25:19.831Z,5.25
2022-12-02T07:27:51.211Z,5.46
2022-12-02T07:30:24.560Z,4.29
2022-12-02T07:32:53.680Z,3.53
2022-12-02T07:35:24.607Z,4.43
2022-12-02T07:37:55.582Z,5.42
2022-12-02T07:40:26.724Z,5.25
2022-12-02T07:42:57.384Z,3.73
2022-12-02T07:45:28.052Z,3.16
2022-12-02T07:47:58.685Z,4.07
2022-12-02T07:50:29.722Z,5.24
2022-12-02T07:53:00.304Z,5.78
2022-12-02T07:55:30.848Z,4.90
2022-12-02T07:58:01.346Z,3.62
2022-12-02T08:00:32.454Z,3.01
2022-12-02T08:03:02.841Z,3.73
2022-12-02T08:05:33.607Z,4.47
2022-12-02T08:08:04.310Z,5.42
2022-12-02T08:10:35.141Z,5.05
2022-12-02T08:13:05.808Z,3.72
2022-12-02T08:15:36.337Z,4.24
2022-12-02T08:18:06.973Z,4.91
2022-12-02T08:20:37.457Z,5.42
2022-12-02T08:23:07.980Z,4.94
2022-12-02T08:25:38.657Z,3.77
2022-12-02T08:28:09.295Z,3.55
2022-12-02T08:30:39.859Z,4.29
2022-12-02T08:33:10.615Z,5.15
2022-12-02T08:35:41.205Z,5.51
2022-12-02T08:38:11.934Z,5.00
2022-12-02T08:40:44.076Z,4.05
2022-12-02T08:43:14.524Z,3.49
2022-12-02T08:45:45.111Z,4.26
2022-12-02T08:48:15.970Z,4.90
2022-12-02T08:50:47.009Z,5.52
2022-12-02T08:53:17.527Z,5.46
2022-12-02T08:55:48.419Z,4.53
2022-12-02T08:58:19.428Z,3.81
2022-12-02T09:00:50.145Z,4.44
2022-12-02T09:03:20.885Z,5.07
2022-12-02T09:05:51.617Z,5.63
2022-12-02T09:08:22.189Z,5.12
2022-12-02T09:10:52.858Z,3.73
2022-12-02T09:13:23.605Z,3.58
2022-12-02T09:15:54.475Z,4.64
2022-12-02T09:18:25.653Z,5.39
2022-12-02T09:20:56.323Z,5.41
2022-12-02T09:23:26.822Z,4.18
2022-12-02T09:25:57.582Z,3.46
2022-12-02T09:28:28.014Z,4.28
2022-12-02T09:30:58.535Z,5.12
2022-12-02T09:33:33.639Z,5.83
2022-12-02T09:36:04.938Z,5.58
2022-12-02T09:38:35.490Z,4.22
2022-12-02T09:41:06.436Z,4.13
2022-12-02T09:43:37.157Z,4.83
2022-12-02T09:46:09.631Z,5.46
2022-12-02T09:48:40.422Z,5.89
2022-12-02T09:51:12.219Z,5.60
2022-12-02T09:53:43.474Z,4.40
2022-12-02T09:56:16.519Z,3.79
2022-12-02T09:58:48.214Z,4.59
2022-12-02T10:01:19.321Z,5.57
2022-12-02T10:03:50.882Z,5.60
2022-12-02T10:06:22.234Z,4.49
2022-12-02T10:08:53.265Z,3.89
2022-12-02T10:11:28.301Z,4.74
2022-12-02T10:13:58.921Z,5.43
2022-12-02T10:16:30.561Z,5.90
2022-12-02T10:19:01.990Z,5.68
2022-12-02T10:21:32.650Z,4.35
2022-12-02T10:24:05.912Z,3.81
2022-12-02T10:26:34.772Z,4.43
2022-12-02T10:29:06.803Z,4.98
2022-12-02T10:31:37.200Z,5.65
2022-12-02T10:34:08.481Z,5.78
2022-12-02T10:36:39.711Z,4.46
2022-12-02T10:39:23.988Z,3.43
2022-12-02T10:42:10.676Z,3.81
2022-12-02T10:44:43.567Z,4.57
2022-12-02T10:47:20.100Z,5.24
2022-12-02T10:49:55.883Z,5.41
2022-12-02T10:52:29.075Z,4.63
2022-12-02T10:55:01.918Z,3.64
2022-12-02T10:57:33.204Z,3.79
2022-12-02T11:00:08.357Z,4.52
2022-12-02T11:02:42.933Z,5.17
2022-12-02T11:05:16.552Z,5.80
2022-12-02T11:07:54.708Z,6.04
2022-12-02T11:10:26.852Z,4.79
2022-12-02T11:13:31.464Z,4.21
2022-12-02T11:16:15.810Z,5.32
2022-12-02T11:18:56.930Z,5.88
2022-12-02T11:21:38.578Z,5.27
2022-12-02T11:24:26.767Z,3.99
2022-12-02T11:27:16.789Z,4.33
2022-12-02T11:30:02.390Z,5.44
2022-12-02T11:32:46.588Z,5.73
2022-12-02T11:35:19.075Z,4.62
2022-12-02T11:37:50.491Z,3.87
2022-12-02T11:40:38.517Z,4.53
2022-12-02T11:43:26.853Z,5.35
2022-12-02T11:45:59.762Z,5.85
2022-12-02T11:48:31.425Z,5.14
2022-12-02T11:51:02.008Z,3.90
2022-12-02T11:53:33.048Z,4.20
2022-12-02T11:56:12.412Z,5.01
2022-12-02T11:58:46.137Z,5.57
2022-12-02T12:01:18.966Z,4.76
2022-12-02T12:03:50.405Z,3.85
2022-12-02T12:06:21.991Z,4.45
2022-12-02T12:08:55.058Z,5.12
2022-12-02T12:11:26.818Z,5.84
2022-12-02T12:14:01.513Z,5.47
2022-12-02T12:16:33.712Z,4.05
2022-12-02T12:19:05.116Z,4.07
2022-12-02T12:21:47.364Z,5.06
2022-12-02T12:24:36.268Z,5.75
2022-12-02T12:27:33.995Z,5.74
2022-12-02T12:30:05.081Z,4.23
2022-12-02T12:32:35.570Z,3.81
2022-12-02T12:35:06.825Z,4.59
2022-12-02T12:37:37.262Z,5.14
2022-12-02T12:40:08.806Z,5.33
2022-12-02T12:42:39.420Z,5.54
2022-12-02T12:45:11.051Z,4.57
2022-12-02T12:47:41.845Z,3.44
2022-12-02T12:50:13.774Z,3.51
2022-12-02T12:52:44.802Z,4.53
2022-12-02T12:55:15.638Z,4.99
2022-12-02T12:57:46.166Z,5.27
2022-12-02T13:00:18.095Z,4.62
2022-12-02T13:02:49.074Z,3.64
2022-12-02T13:05:19.904Z,4.26
2022-12-02T13:07:50.903Z,5.04
2022-12-02T13:10:22.671Z,5.26
2022-12-02T13:12:53.134Z,4.44
2022-12-02T13:15:24.163Z,3.43
2022-12-02T13:17:54.895Z,3.57
2022-12-02T13:20:25.751Z,4.58
2022-12-02T13:22:56.467Z,5.36
2022-12-02T13:25:27.417Z,5.16
2022-12-02T13:27:58.340Z,4.10
2022-12-02T13:30:29.676Z,3.47
2022-12-02T13:33:00.433Z,4.23
2022-12-02T13:35:31.161Z,5.00
2022-12-02T13:38:01.930Z,5.30
2022-12-02T13:40:32.727Z,4.28
2022-12-02T13:43:03.599Z,3.56
2022-12-02T13:45:34.087Z,4.51
2022-12-02T13:48:09.632Z,5.13
2022-12-02T13:50:43.750Z,5.57
2022-12-02T13:53:14.315Z,4.56
2022-12-02T13:55:45.383Z,3.52
2022-12-02T13:58:16.051Z,3.95
2022-12-02T14:00:47.192Z,4.87
2022-12-02T14:03:17.958Z,5.18
2022-12-02T14:05:48.765Z,5.52
2022-12-02T14:08:19.345Z,5.16
2022-12-02T14:10:50.223Z,3.97
2022-12-02T14:13:21.560Z,3.43
2022-12-02T14:15:52.564Z,4.16
2022-12-02T14:18:23.553Z,5.10
2022-12-02T14:20:54.304Z,5.49
2022-12-02T14:23:25.163Z,4.03
2022-12-02T14:25:56.064Z,3.32
2022-12-02T14:28:26.771Z,3.91
2022-12-02T14:30:57.249Z,4.43
2022-12-02T14:33:47.750Z,4.80
2022-12-02T14:36:18.857Z,5.14
2022-12-02T14:38:49.486Z,5.17
2022-12-02T14:41:20.320Z,4.57
2022-12-02T14:43:53.351Z,3.46
2022-12-02T14:46:26.820Z,3.95
2022-12-02T14:49:23.116Z,4.86
2022-12-02T14:51:48.247Z,5.49
2022-12-02T14:54:19.182Z,4.76
2022-12-02T14:56:49.858Z,3.55
2022-12-02T14:59:20.552Z,3.08
2022-12-02T15:01:51.515Z,3.94
2022-12-02T15:04:22.526Z,4.76
2022-12-02T15:06:53.258Z,5.19
2022-12-02T15:09:23.987Z,5.21
2022-12-02T15:11:54.857Z,4.01
2022-12-02T15:14:25.598Z,3.85
2022-12-02T15:16:57.052Z,4.49
2022-12-02T15:19:28.150Z,5.03
2022-12-02T15:21:58.980Z,5.11
2022-12-02T15:24:29.719Z,5.27
2022-12-02T15:27:01.923Z,5.01
2022-12-02T15:29:33.086Z,3.97
2022-12-02T15:32:03.920Z,3.45
2022-12-02T15:34:34.630Z,4.19
2022-12-02T15:37:05.222Z,4.93
2022-12-02T15:39:36.063Z,5.40
2022-12-02T15:42:07.008Z,5.36
2022-12-02T15:44:38.064Z,4.55
2022-12-02T15:47:08.819Z,3.66
2022-12-02T15:49:39.606Z,4.22
2022-12-02T15:52:10.759Z,5.19
2022-12-02T15:54:41.692Z,5.58
2022-12-02T15:57:12.291Z,5.55
2022-12-02T15:59:42.893Z,4.35
2022-12-02T16:02:13.751Z,3.49
2022-12-02T16:04:44.625Z,3.98
2022-12-02T16:07:15.970Z,4.75
2022-12-02T16:09:46.405Z,5.53
2022-12-02T16:12:17.945Z,4.82
2022-12-02T16:14:54.890Z,3.60
2022-12-02T16:17:26.707Z,3.31
2022-12-02T16:19:57.330Z,3.97
2022-12-02T16:22:28.134Z,4.72
2022-12-02T16:24:58.784Z,5.13
2022-12-02T16:27:29.975Z,5.45
2022-12-02T16:30:00.669Z,5.64
2022-12-02T16:32:31.541Z,4.35
2022-12-02T16:35:02.024Z,3.68
2022-12-02T16:37:32.810Z,4.67
2022-12-02T16:40:03.484Z,5.47
2022-12-02T16:42:34.301Z,5.40
2022-12-02T16:45:05.272Z,3.98
2022-12-02T16:47:36.008Z,3.57
2022-12-02T16:50:07.055Z,4.35
2022-12-02T16:52:37.865Z,5.31
2022-12-02T16:55:09.771Z,5.30
2022-12-02T16:57:40.558Z,5.67
2022-12-02T17:00:11.959Z,5.78
2022-12-02T17:02:43.441Z,4.38
2022-12-02T17:05:13.893Z,3.66
2022-12-02T17:07:45.098Z,4.31
2022-12-02T17:10:15.930Z,4.84
2022-12-02T17:12:47.008Z,5.39
2022-12-02T17:15:17.473Z,5.93
2022-12-02T17:17:48.394Z,5.32
2022-12-02T17:20:19.209Z,4.04
2022-12-02T17:22:50.224Z,3.65
2022-12-02T17:25:20.781Z,4.65
2022-12-02T17:27:51.534Z,5.40
2022-12-02T17:30:22.061Z,5.56
2022-12-02T17:32:56.647Z,5.60
2022-12-02T17:35:28.015Z,5.95
2022-12-02T17:37:58.947Z,4.92
2022-12-02T17:40:29.793Z,4.09
2022-12-02T17:43:01.026Z,4.65
2022-12-02T17:45:32.332Z,5.04
2022-12-02T17:48:03.322Z,5.62
2022-12-02T17:50:33.637Z,5.93
2022-12-02T17:53:04.682Z,6.17
2022-12-02T17:55:35.309Z,4.97
2022-12-02T17:58:06.191Z,4.07
2022-12-02T18:00:36.776Z,4.78
2022-12-02T18:03:07.767Z,5.56
2022-12-02T18:05:38.650Z,6.03
2022-12-02T18:08:09.643Z,6.15
2022-12-02T18:10:40.323Z,4.81
2022-12-02T18:13:11.157Z,3.64
2022-12-02T18:15:41.834Z,3.82
2022-12-02T18:18:12.522Z,4.81
2022-12-02T18:20:43.155Z,5.56
2022-12-02T18:23:13.993Z,5.79
2022-12-02T18:25:45.134Z,4.47
2022-12-02T18:28:15.894Z,3.54
2022-12-02T18:30:46.559Z,4.14
2022-12-02T18:33:17.333Z,5.21
2022-12-02T18:35:47.860Z,5.80
2022-12-02T18:38:18.732Z,6.15
2022-12-02T18:40:49.133Z,6.23
2022-12-02T18:43:19.611Z,4.80
2022-12-02T18:45:50.105Z,3.95
2022-12-02T18:48:20.641Z,4.61
2022-12-02T18:50:51.384Z,5.31
2022-12-02T18:53:22.068Z,5.58
2022-12-02T18:55:52.632Z,5.86
2022-12-02T18:58:23.516Z,6.06
2022-12-02T19:00:54.133Z,4.81
2022-12-02T19:03:24.983Z,3.77
2022-12-02T19:05:55.840Z,4.25
2022-12-02T19:08:26.864Z,5.07
2022-12-02T19:10:57.504Z,5.48
2022-12-02T19:13:28.347Z,5.66
2022-12-02T19:15:58.962Z,5.80
2022-12-02T19:18:29.646Z,5.96
2022-12-02T19:21:01.974Z,5.95
2022-12-02T19:23:33.837Z,4.76
2022-12-02T19:26:04.205Z,3.88
2022-12-02T19:28:34.903Z,4.23
2022-12-02T19:31:05.689Z,5.02
2022-12-02T19:33:37.896Z,5.76
2022-12-02T19:36:08.735Z,6.16
2022-12-02T19:38:39.778Z,5.70
2022-12-02T19:41:10.223Z,4.42
2022-12-02T19:43:41.274Z,3.75
2022-12-02T19:46:12.145Z,4.39
2022-12-02T19:48:43.212Z,5.06
2022-12-02T19:51:13.763Z,5.53
2022-12-02T19:53:44.493Z,6.08
2022-12-02T19:56:15.054Z,5.75
2022-12-02T19:58:45.940Z,4.62
2022-12-02T20:01:16.529Z,4.07
2022-12-02T20:03:47.929Z,4.85
2022-12-02T20:06:18.401Z,5.60
2022-12-02T20:08:49.699Z,6.23
2022-12-02T20:11:20.530Z,6.18
2022-12-02T20:13:52.085Z,5.42
2022-12-02T20:16:22.746Z,4.22
2022-12-02T20:18:53.364Z,3.74
2022-12-02T20:21:23.824Z,4.55
2022-12-02T20:23:54.724Z,5.11
2022-12-02T20:26:25.234Z,5.55
2022-12-02T20:28:56.158Z,6.00
2022-12-02T20:31:26.951Z,6.37
2022-12-02T20:33:58.048Z,4.97
2022-12-02T20:36:28.972Z,4.23
2022-12-02T20:38:59.821Z,4.91
2022-12-02T20:41:31.010Z,5.43
2022-12-02T20:44:01.704Z,5.68
2022-12-02T20:46:33.315Z,5.92
2022-12-02T20:49:04.271Z,6.13
2022-12-02T20:51:34.616Z,6.40
2022-12-02T20:54:05.688Z,5.30
2022-12-02T20:56:36.186Z,4.34
2022-12-02T20:59:07.270Z,4.94
2022-12-02T21:01:37.902Z,5.70
2022-12-02T21:04:08.998Z,6.17
2022-12-02T21:06:39.441Z,6.51
2022-12-02T21:09:10.466Z,6.29
2022-12-02T21:11:40.996Z,5.21
2022-12-02T21:14:11.872Z,4.14
2022-12-02T21:16:42.724Z,4.88
2022-12-02T21:19:13.904Z,5.73
2022-12-02T21:21:44.329Z,5.94
2022-12-02T21:24:15.170Z,6.32
2022-12-02T21:26:45.798Z,6.19
2022-12-02T21:29:16.946Z,5.09
2022-12-02T21:31:47.878Z,4.31
2022-12-02T21:34:18.716Z,4.93
2022-12-02T21:36:49.245Z,5.69
2022-12-02T21:39:20.185Z,6.31
2022-12-02T21:41:50.611Z,6.62
2022-12-02T21:44:22.943Z,6.94
2022-12-02T21:46:53.650Z,6.10
2022-12-02T21:49:24.760Z,4.89
2022-12-02T21:51:55.283Z,4.20
2022-12-02T21:54:26.236Z,5.13
2022-12-02T21:56:57.152Z,6.02
2022-12-02T21:59:28.448Z,6.56
2022-12-02T22:01:58.987Z,7.10
2022-12-02T22:04:31.605Z,7.10
2022-12-02T22:07:16.270Z,5.79
2022-12-02T22:09:47.144Z,4.47
2022-12-02T22:12:17.737Z,3.98
2022-12-02T22:14:48.668Z,4.72
2022-12-02T22:17:19.606Z,5.54
2022-12-02T22:19:50.346Z,6.21
2022-12-02T22:22:20.974Z,6.64
2022-12-02T22:24:51.749Z,6.69
2022-12-02T22:27:22.644Z,5.72
2022-12-02T22:29:53.279Z,4.55
2022-12-02T22:32:23.801Z,3.99
2022-12-02T22:34:54.769Z,4.98
2022-12-02T22:37:25.477Z,5.74
2022-12-02T22:39:56.614Z,6.32
2022-12-02T22:42:27.043Z,6.50
2022-12-02T22:44:57.981Z,6.53
2022-12-02T22:47:28.920Z,6.85
2022-12-02T22:49:59.526Z,6.17
2022-12-02T22:52:29.973Z,4.86
2022-12-02T22:55:00.506Z,4.84
2022-12-02T22:57:30.831Z,5.66
2022-12-02T23:00:02.886Z,6.11
2022-12-02T23:02:33.389Z,6.62
2022-12-02T23:05:04.478Z,7.03
2022-12-02T23:07:34.838Z,7.05
2022-12-02T23:10:06.988Z,5.80
2022-12-02T23:12:37.362Z,4.61
2022-12-02T23:15:35.255Z,4.01
2022-12-02T23:17:59.940Z,4.99
2022-12-02T23:20:31.008Z,6.00
2022-12-02T23:23:01.323Z,6.57
2022-12-02T23:25:32.402Z,6.89
2022-12-02T23:28:02.778Z,7.24
2022-12-02T23:30:33.701Z,7.24
2022-12-02T23:33:04.235Z,5.96
2022-12-02T23:35:35.213Z,4.92
2022-12-02T23:38:05.493Z,5.42
2022-12-02T23:40:36.439Z,6.27
2022-12-02T23:43:06.667Z,6.77
2022-12-02T23:45:37.564Z,7.08
2022-12-02T23:48:08.938Z,7.32
2022-12-02T23:50:40.091Z,6.78
2022-12-02T23:53:10.409Z,5.32
2022-12-02T23:55:41.645Z,4.52
2022-12-02T23:58:12.093Z,5.19
